Woodbine, Iowa
Current Conditions -  °F | °C
As of 2:55 AM on Thursday 23 Oct 2014 (Local Time) from KHNR Reporting Station
Haze Haze  
Wind Chill: 57°   Ceiling: 600
Heat Index: 57°   Visibility: 6mi
Dew Point: 57°   Wind: 10mph
Humidity: 100%   Direction: 170°S
Pressure: 30.07"   Gusts: NA
Location:  41.74°N, 95.7°W
Report Text: KHNR 230755Z AUTO 17009KT 6SM BR OVC006 14/14 A3007 RMK AO2 P0001
Loading
Personal Weather Stations






























Interactive Weather Map New forecast layout! Learn more

10-Day Weather Forecast

Advertisements
Track Severe Weather on mobile